Sharon, WI (53585)

2:01 PM CDT on August 23, 2014 (GMT -0500)
MesoWest SHARON WI US UPR | Change Station
CLOSE
Current Station
Personal Weather Station
Location: Sharon, WI
Elevation: 949 ft
Nearby Weather Stations

Elev 949 ft 42.52 °N, 88.78 °W | Updated 5 hours ago

Light Rain
Light Rain
77.0 °F
Feels Like 77.0 °F
N
-
Wind Variable Wind from North

Today
High -- | Low -- °F
--% Chance of Precip.
Yesterday
High -- | Low -- °F
Precip. -- in
6:10 AM 7:43 PM
Waning Crescent, 3% visible
Pressure 29.96 in
Visibility 7.0 miles
Clouds Scattered Clouds 4000 ft
Mostly Cloudy 5500 ft
Dew Point Not available.
Humidity Not available.
Rainfall -999.00 in
Snow Depth Not available.
UV 5 out of 12
Pollen 6.50 out of 12
Air Quality Not available.
Flu Activity Not available.
METAR KJVL 231845Z 03003KT 7SM -RA SCT040 BKN055 22/21 A2996 RMK RAB25

More Conditions Fewer Conditions

Pressure 29.96 in
Visibility 7.0 miles
Clouds Scattered Clouds 4000 ft
Mostly Cloudy 5500 ft
Dew Point Not available.
Humidity Not available.
Rainfall -999.00 in
Snow Depth Not available.
UV 5 out of 12
Pollen 6.50 out of 12
Air Quality Not available.
Flu Activity Not available.
METAR KJVL 231845Z 03003KT 7SM -RA SCT040 BKN055 22/21 A2996 RMK RAB25

More Conditions Fewer Conditions

10-Day Weather Forecast

Almanac

Astronomy

Aug. 23, 2014 Rise Set
Actual Time 6:10 AM CDT 7:43 PM CDT
Civil Twilight 5:40 AM CDT 8:13 PM CDT
Nautical Twilight 5:04 AM CDT 8:49 PM CDT
Astronomical Twilight 4:26 AM CDT 9:27 PM CDT
Moon 4:25 AM CDT 6:28 PM CDT
Length of Visible Light 14h 32m
Length of Day
13h 33m
Tomorrow will be 2m 41s shorter.
Waning Crescent, 3% of the Moon is Illuminated
Today
Waning Crescent
Aug 25
New
Sep 2
First Quarter
Sep 8
Full
Sep 15
Last Quarter

Today's Extremes

State Highs State Lows

Community

WunderPhotos

Upload Photos

1,746,580 photos uploaded!

WunderBlogs® & News

Nearby

Snow Depth

Station Depth Elevation
No new snow has been reported.

Earthquake Activity

City Distance Mag. Time & Date
No recent earthquake activity has been reported nearby.
Minimum magnitude displayed is 2.5.

Coastal Water Temperatures

Place Temperature
No Stations Reporting

Nearby Weather Stations